sensor_id;sensor_type;location;lat;lon;timestamp;temperature;humidity
28763;DHT22;15918;51.270;6.522;2024-01-10T00:00:15;2.30;49.30
28763;DHT22;15918;51.270;6.522;2024-01-10T00:02:41;2.30;49.30
28763;DHT22;15918;51.270;6.522;2024-01-10T00:05:06;2.30;49.20
28763;DHT22;15918;51.270;6.522;2024-01-10T00:07:32;2.30;49.30
28763;DHT22;15918;51.270;6.522;2024-01-10T00:09:57;2.30;49.30
28763;DHT22;15918;51.270;6.522;2024-01-10T00:12:26;2.30;49.20
28763;DHT22;15918;51.270;6.522;2024-01-10T00:14:51;2.30;49.30
28763;DHT22;15918;51.270;6.522;2024-01-10T00:17:17;2.30;49.30
28763;DHT22;15918;51.270;6.522;2024-01-10T00:19:42;2.30;49.20
28763;DHT22;15918;51.270;6.522;2024-01-10T00:22:08;2.30;49.20
28763;DHT22;15918;51.270;6.522;2024-01-10T00:24:34;2.30;49.40
28763;DHT22;15918;51.270;6.522;2024-01-10T00:27:00;2.30;49.20
28763;DHT22;15918;51.270;6.522;2024-01-10T00:29:26;2.30;49.20
28763;DHT22;15918;51.270;6.522;2024-01-10T00:31:51;2.30;49.30
28763;DHT22;15918;51.270;6.522;2024-01-10T00:34:18;2.30;49.30
28763;DHT22;15918;51.270;6.522;2024-01-10T00:36:43;2.30;49.50
28763;DHT22;15918;51.270;6.522;2024-01-10T00:39:09;2.30;49.50
28763;DHT22;15918;51.270;6.522;2024-01-10T00:41:34;2.30;49.40
28763;DHT22;15918;51.270;6.522;2024-01-10T00:44:00;2.30;49.40
28763;DHT22;15918;51.270;6.522;2024-01-10T00:46:26;2.30;49.40
28763;DHT22;15918;51.270;6.522;2024-01-10T00:48:51;2.30;49.40
28763;DHT22;15918;51.270;6.522;2024-01-10T00:51:17;2.30;49.50
28763;DHT22;15918;51.270;6.522;2024-01-10T00:53:42;2.30;49.50
28763;DHT22;15918;51.270;6.522;2024-01-10T00:56:08;2.30;49.40
28763;DHT22;15918;51.270;6.522;2024-01-10T00:58:35;2.30;49.40
28763;DHT22;15918;51.270;6.522;2024-01-10T01:01:00;2.30;49.20
28763;DHT22;15918;51.270;6.522;2024-01-10T01:03:26;2.30;49.30
28763;DHT22;15918;51.270;6.522;2024-01-10T01:05:51;2.20;49.40
28763;DHT22;15918;51.270;6.522;2024-01-10T01:08:17;2.20;49.50
28763;DHT22;15918;51.270;6.522;2024-01-10T01:10:42;2.20;49.40
28763;DHT22;15918;51.270;6.522;2024-01-10T01:13:08;2.20;49.40
28763;DHT22;15918;51.270;6.522;2024-01-10T01:15:34;2.30;49.60
28763;DHT22;15918;51.270;6.522;2024-01-10T01:17:59;2.20;49.50
28763;DHT22;15918;51.270;6.522;2024-01-10T01:20:28;2.20;49.50
28763;DHT22;15918;51.270;6.522;2024-01-10T01:22:53;2.20;49.40
28763;DHT22;15918;51.270;6.522;2024-01-10T01:25:19;2.20;49.40
28763;DHT22;15918;51.270;6.522;2024-01-10T01:27:44;2.20;49.50
28763;DHT22;15918;51.270;6.522;2024-01-10T01:30:10;2.20;49.50
28763;DHT22;15918;51.270;6.522;2024-01-10T01:32:37;2.20;49.50
28763;DHT22;15918;51.270;6.522;2024-01-10T01:35:03;2.20;49.50
28763;DHT22;15918;51.270;6.522;2024-01-10T01:37:28;2.20;49.50
28763;DHT22;15918;51.270;6.522;2024-01-10T01:39:54;2.20;49.50
28763;DHT22;15918;51.270;6.522;2024-01-10T01:42:20;2.20;49.60
28763;DHT22;15918;51.270;6.522;2024-01-10T01:44:45;2.20;49.60
28763;DHT22;15918;51.270;6.522;2024-01-10T01:47:11;2.20;50.20
28763;DHT22;15918;51.270;6.522;2024-01-10T01:49:37;2.20;49.50
28763;DHT22;15918;51.270;6.522;2024-01-10T01:52:03;2.20;49.50
28763;DHT22;15918;51.270;6.522;2024-01-10T01:54:29;2.20;49.50
28763;DHT22;15918;51.270;6.522;2024-01-10T01:56:56;2.20;49.40
28763;DHT22;15918;51.270;6.522;2024-01-10T01:59:23;2.20;49.30
28763;DHT22;15918;51.270;6.522;2024-01-10T02:01:51;2.20;49.20
28763;DHT22;15918;51.270;6.522;2024-01-10T02:04:18;2.20;49.10
28763;DHT22;15918;51.270;6.522;2024-01-10T02:06:44;2.10;49.20
28763;DHT22;15918;51.270;6.522;2024-01-10T02:09:09;2.20;49.30
28763;DHT22;15918;51.270;6.522;2024-01-10T02:11:35;2.20;49.30
28763;DHT22;15918;51.270;6.522;2024-01-10T02:14:01;2.20;49.30
28763;DHT22;15918;51.270;6.522;2024-01-10T02:16:27;2.20;49.20
28763;DHT22;15918;51.270;6.522;2024-01-10T02:18:53;2.20;49.30
28763;DHT22;15918;51.270;6.522;2024-01-10T02:21:22;2.20;49.20
28763;DHT22;15918;51.270;6.522;2024-01-10T02:23:47;2.10;49.90
28763;DHT22;15918;51.270;6.522;2024-01-10T02:26:14;2.10;49.20
28763;DHT22;15918;51.270;6.522;2024-01-10T02:28:40;2.10;49.20
28763;DHT22;15918;51.270;6.522;2024-01-10T02:31:06;2.10;49.20
28763;DHT22;15918;51.270;6.522;2024-01-10T02:33:32;2.10;49.20
28763;DHT22;15918;51.270;6.522;2024-01-10T02:35:58;2.10;49.30
28763;DHT22;15918;51.270;6.522;2024-01-10T02:38:23;2.10;49.40
28763;DHT22;15918;51.270;6.522;2024-01-10T02:40:49;2.10;49.40
28763;DHT22;15918;51.270;6.522;2024-01-10T02:43:15;2.10;49.40
28763;DHT22;15918;51.270;6.522;2024-01-10T02:45:41;2.10;50.00
28763;DHT22;15918;51.270;6.522;2024-01-10T02:48:07;2.10;49.30
28763;DHT22;15918;51.270;6.522;2024-01-10T02:50:32;2.10;49.30
28763;DHT22;15918;51.270;6.522;2024-01-10T02:52:58;2.10;49.30
28763;DHT22;15918;51.270;6.522;2024-01-10T02:55:23;2.10;49.20
28763;DHT22;15918;51.270;6.522;2024-01-10T02:57:49;2.10;49.00
28763;DHT22;15918;51.270;6.522;2024-01-10T03:00:15;2.10;49.00
28763;DHT22;15918;51.270;6.522;2024-01-10T03:02:41;2.10;49.00
28763;DHT22;15918;51.270;6.522;2024-01-10T03:05:07;2.10;49.10
28763;DHT22;15918;51.270;6.522;2024-01-10T03:07:32;2.10;49.20
28763;DHT22;15918;51.270;6.522;2024-01-10T03:09:58;2.10;49.20
28763;DHT22;15918;51.270;6.522;2024-01-10T03:12:24;2.10;49.10
28763;DHT22;15918;51.270;6.522;2024-01-10T03:14:49;2.00;49.00
28763;DHT22;15918;51.270;6.522;2024-01-10T03:17:15;2.10;49.00
28763;DHT22;15918;51.270;6.522;2024-01-10T03:19:40;2.10;49.00
28763;DHT22;15918;51.270;6.522;2024-01-10T03:22:08;2.10;49.10
28763;DHT22;15918;51.270;6.522;2024-01-10T03:24:33;2.10;49.20
28763;DHT22;15918;51.270;6.522;2024-01-10T03:26:59;2.10;49.30
28763;DHT22;15918;51.270;6.522;2024-01-10T03:29:25;2.00;49.10
28763;DHT22;15918;51.270;6.522;2024-01-10T03:31:50;2.00;49.20
28763;DHT22;15918;51.270;6.522;2024-01-10T03:34:16;2.00;49.20
28763;DHT22;15918;51.270;6.522;2024-01-10T03:36:43;2.00;49.30
28763;DHT22;15918;51.270;6.522;2024-01-10T03:39:09;2.00;49.30
28763;DHT22;15918;51.270;6.522;2024-01-10T03:41:35;2.00;49.30
28763;DHT22;15918;51.270;6.522;2024-01-10T03:44:01;2.00;49.20
28763;DHT22;15918;51.270;6.522;2024-01-10T03:46:27;2.00;49.20
28763;DHT22;15918;51.270;6.522;2024-01-10T03:48:52;2.00;49.20
28763;DHT22;15918;51.270;6.522;2024-01-10T03:51:18;2.00;49.00
28763;DHT22;15918;51.270;6.522;2024-01-10T03:53:45;2.00;49.00
28763;DHT22;15918;51.270;6.522;2024-01-10T03:56:11;2.00;49.10
28763;DHT22;15918;51.270;6.522;2024-01-10T03:58:37;2.00;49.20
28763;DHT22;15918;51.270;6.522;2024-01-10T04:01:07;2.00;49.10
28763;DHT22;15918;51.270;6.522;2024-01-10T04:03:33;2.00;49.00
28763;DHT22;15918;51.270;6.522;2024-01-10T04:05:59;1.90;48.90
28763;DHT22;15918;51.270;6.522;2024-01-10T04:08:24;1.90;48.80
28763;DHT22;15918;51.270;6.522;2024-01-10T04:10:50;1.90;48.80
28763;DHT22;15918;51.270;6.522;2024-01-10T04:13:15;1.90;48.90
28763;DHT22;15918;51.270;6.522;2024-01-10T04:15:41;1.90;49.00
28763;DHT22;15918;51.270;6.522;2024-01-10T04:18:06;1.90;49.00
28763;DHT22;15918;51.270;6.522;2024-01-10T04:20:32;1.90;49.00
28763;DHT22;15918;51.270;6.522;2024-01-10T04:22:58;1.90;49.00
28763;DHT22;15918;51.270;6.522;2024-01-10T04:25:23;1.80;49.00
28763;DHT22;15918;51.270;6.522;2024-01-10T04:27:49;1.80;49.00
28763;DHT22;15918;51.270;6.522;2024-01-10T04:30:16;1.90;48.90
28763;DHT22;15918;51.270;6.522;2024-01-10T04:32:41;1.80;48.70
28763;DHT22;15918;51.270;6.522;2024-01-10T04:35:07;1.80;48.80
28763;DHT22;15918;51.270;6.522;2024-01-10T04:37:33;1.80;49.00
28763;DHT22;15918;51.270;6.522;2024-01-10T04:39:58;1.80;49.10
28763;DHT22;15918;51.270;6.522;2024-01-10T04:42:24;1.80;49.00
28763;DHT22;15918;51.270;6.522;2024-01-10T04:44:50;1.80;48.90
28763;DHT22;15918;51.270;6.522;2024-01-10T04:47:16;1.80;48.70
28763;DHT22;15918;51.270;6.522;2024-01-10T04:49:41;1.70;48.90
28763;DHT22;15918;51.270;6.522;2024-01-10T04:52:07;1.70;49.20
28763;DHT22;15918;51.270;6.522;2024-01-10T04:54:33;1.70;49.20
28763;DHT22;15918;51.270;6.522;2024-01-10T04:56:59;1.70;49.20
28763;DHT22;15918;51.270;6.522;2024-01-10T04:59:25;1.70;49.20
28763;DHT22;15918;51.270;6.522;2024-01-10T05:01:50;1.80;49.20
28763;DHT22;15918;51.270;6.522;2024-01-10T05:04:16;1.70;49.20
28763;DHT22;15918;51.270;6.522;2024-01-10T05:06:41;1.70;49.20
28763;DHT22;15918;51.270;6.522;2024-01-10T05:09:07;1.70;49.30
28763;DHT22;15918;51.270;6.522;2024-01-10T05:11:32;1.70;49.20
28763;DHT22;15918;51.270;6.522;2024-01-10T05:14:01;1.70;49.30
28763;DHT22;15918;51.270;6.522;2024-01-10T05:16:27;1.70;49.40
28763;DHT22;15918;51.270;6.522;2024-01-10T05:18:52;1.70;49.30
28763;DHT22;15918;51.270;6.522;2024-01-10T05:21:18;1.70;49.40
28763;DHT22;15918;51.270;6.522;2024-01-10T05:23:43;1.70;49.40
28763;DHT22;15918;51.270;6.522;2024-01-10T05:26:09;1.70;49.50
28763;DHT22;15918;51.270;6.522;2024-01-10T05:28:35;1.70;49.50
28763;DHT22;15918;51.270;6.522;2024-01-10T05:31:00;1.70;49.50
28763;DHT22;15918;51.270;6.522;2024-01-10T05:33:26;1.70;49.50
28763;DHT22;15918;51.270;6.522;2024-01-10T05:35:52;1.70;49.60
28763;DHT22;15918;51.270;6.522;2024-01-10T05:38:17;1.70;49.60
28763;DHT22;15918;51.270;6.522;2024-01-10T05:40:43;1.70;49.60
28763;DHT22;15918;51.270;6.522;2024-01-10T05:43:09;1.70;49.60
28763;DHT22;15918;51.270;6.522;2024-01-10T05:45:38;1.70;49.60
28763;DHT22;15918;51.270;6.522;2024-01-10T05:48:04;1.70;49.60
28763;DHT22;15918;51.270;6.522;2024-01-10T05:50:29;1.70;49.70
28763;DHT22;15918;51.270;6.522;2024-01-10T05:52:55;1.70;49.70
28763;DHT22;15918;51.270;6.522;2024-01-10T05:55:21;1.70;49.60
28763;DHT22;15918;51.270;6.522;2024-01-10T05:57:46;1.70;49.60
28763;DHT22;15918;51.270;6.522;2024-01-10T06:00:12;1.70;49.60
28763;DHT22;15918;51.270;6.522;2024-01-10T06:02:40;1.60;49.60
28763;DHT22;15918;51.270;6.522;2024-01-10T06:05:10;1.70;49.70
28763;DHT22;15918;51.270;6.522;2024-01-10T06:07:39;1.70;49.80
28763;DHT22;15918;51.270;6.522;2024-01-10T06:10:08;1.70;49.60
28763;DHT22;15918;51.270;6.522;2024-01-10T06:12:33;1.60;49.40
28763;DHT22;15918;51.270;6.522;2024-01-10T06:14:59;1.60;49.40
28763;DHT22;15918;51.270;6.522;2024-01-10T06:17:24;1.60;49.60
28763;DHT22;15918;51.270;6.522;2024-01-10T06:19:50;1.60;49.70
28763;DHT22;15918;51.270;6.522;2024-01-10T06:22:16;1.60;49.70
28763;DHT22;15918;51.270;6.522;2024-01-10T06:24:42;1.60;49.70
28763;DHT22;15918;51.270;6.522;2024-01-10T06:27:08;1.60;49.70
28763;DHT22;15918;51.270;6.522;2024-01-10T06:29:35;1.60;49.70
28763;DHT22;15918;51.270;6.522;2024-01-10T06:32:00;1.60;49.70
28763;DHT22;15918;51.270;6.522;2024-01-10T06:34:27;1.60;49.80
28763;DHT22;15918;51.270;6.522;2024-01-10T06:36:52;1.60;49.80
28763;DHT22;15918;51.270;6.522;2024-01-10T06:39:18;1.60;49.90
28763;DHT22;15918;51.270;6.522;2024-01-10T06:41:46;1.60;49.70
28763;DHT22;15918;51.270;6.522;2024-01-10T06:44:11;1.60;49.70
28763;DHT22;15918;51.270;6.522;2024-01-10T06:46:37;1.60;49.70
28763;DHT22;15918;51.270;6.522;2024-01-10T06:49:02;1.60;49.70
28763;DHT22;15918;51.270;6.522;2024-01-10T06:51:28;1.60;49.70
28763;DHT22;15918;51.270;6.522;2024-01-10T06:53:54;1.60;49.70
28763;DHT22;15918;51.270;6.522;2024-01-10T06:56:25;1.60;49.80
28763;DHT22;15918;51.270;6.522;2024-01-10T06:58:51;1.60;50.00
28763;DHT22;15918;51.270;6.522;2024-01-10T07:01:17;1.50;50.00
28763;DHT22;15918;51.270;6.522;2024-01-10T07:03:42;1.50;49.90
28763;DHT22;15918;51.270;6.522;2024-01-10T07:06:10;1.60;49.80
28763;DHT22;15918;51.270;6.522;2024-01-10T07:08:40;1.60;49.70
28763;DHT22;15918;51.270;6.522;2024-01-10T07:11:06;1.50;49.80
28763;DHT22;15918;51.270;6.522;2024-01-10T07:13:31;1.50;49.80
28763;DHT22;15918;51.270;6.522;2024-01-10T07:15:57;1.50;49.80
28763;DHT22;15918;51.270;6.522;2024-01-10T07:18:22;1.50;49.90
28763;DHT22;15918;51.270;6.522;2024-01-10T07:20:48;1.50;49.80
28763;DHT22;15918;51.270;6.522;2024-01-10T07:23:13;1.50;49.80
28763;DHT22;15918;51.270;6.522;2024-01-10T07:25:39;1.50;49.80
28763;DHT22;15918;51.270;6.522;2024-01-10T07:28:05;1.50;49.80
28763;DHT22;15918;51.270;6.522;2024-01-10T07:30:30;1.50;49.80
28763;DHT22;15918;51.270;6.522;2024-01-10T07:32:58;1.50;49.90
28763;DHT22;15918;51.270;6.522;2024-01-10T07:35:24;1.50;49.90
28763;DHT22;15918;51.270;6.522;2024-01-10T07:37:49;1.50;50.00
28763;DHT22;15918;51.270;6.522;2024-01-10T07:40:16;1.50;50.00
28763;DHT22;15918;51.270;6.522;2024-01-10T07:42:42;1.50;49.90
28763;DHT22;15918;51.270;6.522;2024-01-10T07:45:08;1.50;49.80
28763;DHT22;15918;51.270;6.522;2024-01-10T07:47:35;1.50;49.90
28763;DHT22;15918;51.270;6.522;2024-01-10T07:50:07;1.50;50.00
28763;DHT22;15918;51.270;6.522;2024-01-10T07:52:34;1.50;50.00
28763;DHT22;15918;51.270;6.522;2024-01-10T07:54:59;1.40;50.00
28763;DHT22;15918;51.270;6.522;2024-01-10T07:57:26;1.50;50.10
28763;DHT22;15918;51.270;6.522;2024-01-10T07:59:52;1.50;50.10
28763;DHT22;15918;51.270;6.522;2024-01-10T08:02:18;1.50;50.10
28763;DHT22;15918;51.270;6.522;2024-01-10T08:04:43;1.50;50.00
28763;DHT22;15918;51.270;6.522;2024-01-10T08:07:09;1.40;50.00
28763;DHT22;15918;51.270;6.522;2024-01-10T08:09:35;1.50;50.10
28763;DHT22;15918;51.270;6.522;2024-01-10T08:12:02;1.50;50.10
28763;DHT22;15918;51.270;6.522;2024-01-10T08:14:28;1.50;50.30
28763;DHT22;15918;51.270;6.522;2024-01-10T08:16:53;1.50;50.30
28763;DHT22;15918;51.270;6.522;2024-01-10T08:19:20;1.40;50.20
28763;DHT22;15918;51.270;6.522;2024-01-10T08:21:46;1.40;50.20
28763;DHT22;15918;51.270;6.522;2024-01-10T08:24:12;1.40;50.30
28763;DHT22;15918;51.270;6.522;2024-01-10T08:26:37;1.50;50.50
28763;DHT22;15918;51.270;6.522;2024-01-10T08:29:03;1.50;50.50
28763;DHT22;15918;51.270;6.522;2024-01-10T08:31:29;1.50;50.40
28763;DHT22;15918;51.270;6.522;2024-01-10T08:33:55;1.50;50.50
28763;DHT22;15918;51.270;6.522;2024-01-10T08:36:22;1.50;50.60
28763;DHT22;15918;51.270;6.522;2024-01-10T08:38:50;1.40;50.60
28763;DHT22;15918;51.270;6.522;2024-01-10T08:41:15;1.50;50.60
28763;DHT22;15918;51.270;6.522;2024-01-10T08:43:41;1.50;50.60
28763;DHT22;15918;51.270;6.522;2024-01-10T08:46:08;1.50;50.70
28763;DHT22;15918;51.270;6.522;2024-01-10T08:48:33;1.50;50.80
28763;DHT22;15918;51.270;6.522;2024-01-10T08:50:59;1.50;50.80
28763;DHT22;15918;51.270;6.522;2024-01-10T08:53:25;1.50;50.80
28763;DHT22;15918;51.270;6.522;2024-01-10T08:55:50;1.50;50.90
28763;DHT22;15918;51.270;6.522;2024-01-10T08:58:16;1.50;50.90
28763;DHT22;15918;51.270;6.522;2024-01-10T09:00:41;1.50;50.90
28763;DHT22;15918;51.270;6.522;2024-01-10T09:03:07;1.50;50.80
28763;DHT22;15918;51.270;6.522;2024-01-10T09:05:33;1.50;50.90
28763;DHT22;15918;51.270;6.522;2024-01-10T09:07:58;1.50;50.90
28763;DHT22;15918;51.270;6.522;2024-01-10T09:10:24;1.60;51.00
28763;DHT22;15918;51.270;6.522;2024-01-10T09:12:53;1.50;51.00
28763;DHT22;15918;51.270;6.522;2024-01-10T09:15:18;1.60;51.10
28763;DHT22;15918;51.270;6.522;2024-01-10T09:17:44;1.60;51.20
28763;DHT22;15918;51.270;6.522;2024-01-10T09:20:11;1.60;51.10
28763;DHT22;15918;51.270;6.522;2024-01-10T09:22:38;1.60;51.10
28763;DHT22;15918;51.270;6.522;2024-01-10T09:25:04;1.60;51.10
28763;DHT22;15918;51.270;6.522;2024-01-10T09:27:32;1.70;51.10
28763;DHT22;15918;51.270;6.522;2024-01-10T09:29:57;1.70;51.10
28763;DHT22;15918;51.270;6.522;2024-01-10T09:32:23;1.70;51.20
28763;DHT22;15918;51.270;6.522;2024-01-10T09:34:48;1.70;51.20
28763;DHT22;15918;51.270;6.522;2024-01-10T09:37:14;1.70;51.20
28763;DHT22;15918;51.270;6.522;2024-01-10T09:39:40;1.70;51.90
28763;DHT22;15918;51.270;6.522;2024-01-10T09:42:05;1.70;51.30
28763;DHT22;15918;51.270;6.522;2024-01-10T09:44:32;1.80;51.30
28763;DHT22;15918;51.270;6.522;2024-01-10T09:46:58;1.80;51.30
28763;DHT22;15918;51.270;6.522;2024-01-10T09:49:24;1.80;51.20
28763;DHT22;15918;51.270;6.522;2024-01-10T09:51:56;1.80;51.10
28763;DHT22;15918;51.270;6.522;2024-01-10T09:54:24;1.80;50.90
28763;DHT22;15918;51.270;6.522;2024-01-10T09:56:51;1.90;51.10
28763;DHT22;15918;51.270;6.522;2024-01-10T09:59:16;1.90;51.10
28763;DHT22;15918;51.270;6.522;2024-01-10T10:01:42;1.90;51.20
28763;DHT22;15918;51.270;6.522;2024-01-10T10:04:11;1.90;51.00
28763;DHT22;15918;51.270;6.522;2024-01-10T10:06:37;1.90;51.00
28763;DHT22;15918;51.270;6.522;2024-01-10T10:09:03;2.00;51.10
28763;DHT22;15918;51.270;6.522;2024-01-10T10:11:30;2.00;51.20
28763;DHT22;15918;51.270;6.522;2024-01-10T10:13:55;2.00;51.10
28763;DHT22;15918;51.270;6.522;2024-01-10T10:16:25;2.00;51.00
28763;DHT22;15918;51.270;6.522;2024-01-10T10:18:54;2.10;50.90
28763;DHT22;15918;51.270;6.522;2024-01-10T10:21:25;2.10;51.00
28763;DHT22;15918;51.270;6.522;2024-01-10T10:24:01;2.10;51.10
28763;DHT22;15918;51.270;6.522;2024-01-10T10:26:32;2.10;51.10
28763;DHT22;15918;51.270;6.522;2024-01-10T10:28:59;2.20;51.10
28763;DHT22;15918;51.270;6.522;2024-01-10T10:31:25;2.10;51.00
28763;DHT22;15918;51.270;6.522;2024-01-10T10:33:51;2.20;51.00
28763;DHT22;15918;51.270;6.522;2024-01-10T10:36:18;2.20;50.90
28763;DHT22;15918;51.270;6.522;2024-01-10T10:38:43;2.20;50.90
28763;DHT22;15918;51.270;6.522;2024-01-10T10:41:09;2.20;50.90
28763;DHT22;15918;51.270;6.522;2024-01-10T10:43:39;2.30;50.90
28763;DHT22;15918;51.270;6.522;2024-01-10T10:46:06;2.30;50.70
28763;DHT22;15918;51.270;6.522;2024-01-10T10:48:35;2.30;50.70
28763;DHT22;15918;51.270;6.522;2024-01-10T10:51:05;2.30;50.80
28763;DHT22;15918;51.270;6.522;2024-01-10T10:53:35;2.30;50.80
28763;DHT22;15918;51.270;6.522;2024-01-10T10:56:05;2.40;50.80
28763;DHT22;15918;51.270;6.522;2024-01-10T10:58:38;2.40;50.80
28763;DHT22;15918;51.270;6.522;2024-01-10T11:01:05;2.40;50.90
28763;DHT22;15918;51.270;6.522;2024-01-10T11:03:35;2.40;50.80
28763;DHT22;15918;51.270;6.522;2024-01-10T11:06:02;2.50;50.80
28763;DHT22;15918;51.270;6.522;2024-01-10T11:08:30;2.50;50.80
28763;DHT22;15918;51.270;6.522;2024-01-10T11:10:58;2.50;50.80
28763;DHT22;15918;51.270;6.522;2024-01-10T11:13:37;2.50;50.80
28763;DHT22;15918;51.270;6.522;2024-01-10T11:23:54;2.60;50.50
28763;DHT22;15918;51.270;6.522;2024-01-10T11:26:21;2.60;50.40
28763;DHT22;15918;51.270;6.522;2024-01-10T11:28:47;2.60;50.50
28763;DHT22;15918;51.270;6.522;2024-01-10T11:31:14;2.60;50.60
28763;DHT22;15918;51.270;6.522;2024-01-10T11:33:43;2.70;50.60
28763;DHT22;15918;51.270;6.522;2024-01-10T11:36:15;2.70;50.50
28763;DHT22;15918;51.270;6.522;2024-01-10T11:41:34;2.70;50.30
28763;DHT22;15918;51.270;6.522;2024-01-10T11:46:46;2.70;50.40
28763;DHT22;15918;51.270;6.522;2024-01-10T11:49:14;2.80;50.60
28763;DHT22;15918;51.270;6.522;2024-01-10T11:51:57;2.80;50.70
28763;DHT22;15918;51.270;6.522;2024-01-10T11:54:36;2.90;51.40
28763;DHT22;15918;51.270;6.522;2024-01-10T11:57:07;2.90;50.70
28763;DHT22;15918;51.270;6.522;2024-01-10T11:59:33;2.80;50.80
28763;DHT22;15918;51.270;6.522;2024-01-10T12:01:59;2.90;50.70
28763;DHT22;15918;51.270;6.522;2024-01-10T12:04:25;2.90;50.80
28763;DHT22;15918;51.270;6.522;2024-01-10T12:06:55;3.00;50.70
28763;DHT22;15918;51.270;6.522;2024-01-10T12:09:21;2.90;50.50
28763;DHT22;15918;51.270;6.522;2024-01-10T12:11:50;2.90;50.40
28763;DHT22;15918;51.270;6.522;2024-01-10T12:14:15;3.00;50.40
28763;DHT22;15918;51.270;6.522;2024-01-10T12:16:41;3.00;50.30
28763;DHT22;15918;51.270;6.522;2024-01-10T12:19:07;3.00;50.30
28763;DHT22;15918;51.270;6.522;2024-01-10T12:21:33;3.00;50.40
28763;DHT22;15918;51.270;6.522;2024-01-10T12:23:58;3.10;50.60
28763;DHT22;15918;51.270;6.522;2024-01-10T12:26:24;3.10;50.60
28763;DHT22;15918;51.270;6.522;2024-01-10T12:28:59;3.10;50.70
28763;DHT22;15918;51.270;6.522;2024-01-10T12:31:29;3.10;50.70
28763;DHT22;15918;51.270;6.522;2024-01-10T12:33:59;3.10;50.60
28763;DHT22;15918;51.270;6.522;2024-01-10T12:36:24;3.10;50.50
28763;DHT22;15918;51.270;6.522;2024-01-10T12:38:51;3.10;50.50
28763;DHT22;15918;51.270;6.522;2024-01-10T12:41:17;3.10;50.60
28763;DHT22;15918;51.270;6.522;2024-01-10T12:43:53;3.10;50.70
28763;DHT22;15918;51.270;6.522;2024-01-10T12:46:21;3.20;50.70
28763;DHT22;15918;51.270;6.522;2024-01-10T12:48:58;3.10;51.30
28763;DHT22;15918;51.270;6.522;2024-01-10T12:51:26;3.20;50.70
28763;DHT22;15918;51.270;6.522;2024-01-10T12:53:52;3.20;50.90
28763;DHT22;15918;51.270;6.522;2024-01-10T12:56:18;3.20;51.00
28763;DHT22;15918;51.270;6.522;2024-01-10T12:58:44;3.20;51.00
28763;DHT22;15918;51.270;6.522;2024-01-10T13:01:10;3.20;51.00
28763;DHT22;15918;51.270;6.522;2024-01-10T13:03:38;3.20;51.10
28763;DHT22;15918;51.270;6.522;2024-01-10T13:06:04;3.30;51.10
28763;DHT22;15918;51.270;6.522;2024-01-10T13:08:30;3.30;51.10
28763;DHT22;15918;51.270;6.522;2024-01-10T13:10:57;3.30;51.20
28763;DHT22;15918;51.270;6.522;2024-01-10T13:13:23;3.30;51.20
28763;DHT22;15918;51.270;6.522;2024-01-10T13:15:48;3.20;51.10
28763;DHT22;15918;51.270;6.522;2024-01-10T13:18:14;3.20;51.00
28763;DHT22;15918;51.270;6.522;2024-01-10T13:20:42;3.30;50.90
28763;DHT22;15918;51.270;6.522;2024-01-10T13:23:08;3.30;50.90
28763;DHT22;15918;51.270;6.522;2024-01-10T13:25:35;3.30;51.10
28763;DHT22;15918;51.270;6.522;2024-01-10T13:28:01;3.30;51.10
28763;DHT22;15918;51.270;6.522;2024-01-10T13:30:27;3.30;51.20
28763;DHT22;15918;51.270;6.522;2024-01-10T13:32:53;3.30;51.40
28763;DHT22;15918;51.270;6.522;2024-01-10T13:35:18;3.30;51.50
28763;DHT22;15918;51.270;6.522;2024-01-10T13:37:47;3.30;51.50
28763;DHT22;15918;51.270;6.522;2024-01-10T13:40:13;3.30;51.40
28763;DHT22;15918;51.270;6.522;2024-01-10T13:42:45;3.30;51.40
28763;DHT22;15918;51.270;6.522;2024-01-10T13:45:10;3.30;51.40
28763;DHT22;15918;51.270;6.522;2024-01-10T13:47:36;3.30;51.50
28763;DHT22;15918;51.270;6.522;2024-01-10T13:50:03;3.30;51.60
28763;DHT22;15918;51.270;6.522;2024-01-10T13:52:29;3.30;51.70
28763;DHT22;15918;51.270;6.522;2024-01-10T13:54:55;3.30;51.70
28763;DHT22;15918;51.270;6.522;2024-01-10T13:57:21;3.30;51.80
28763;DHT22;15918;51.270;6.522;2024-01-10T13:59:47;3.30;51.80
28763;DHT22;15918;51.270;6.522;2024-01-10T14:02:13;3.30;51.90
28763;DHT22;15918;51.270;6.522;2024-01-10T14:04:39;3.30;51.90
28763;DHT22;15918;51.270;6.522;2024-01-10T14:07:05;3.30;52.00
28763;DHT22;15918;51.270;6.522;2024-01-10T14:09:31;3.30;51.90
28763;DHT22;15918;51.270;6.522;2024-01-10T14:11:57;3.30;52.10
28763;DHT22;15918;51.270;6.522;2024-01-10T14:14:22;3.30;52.10
28763;DHT22;15918;51.270;6.522;2024-01-10T14:16:48;3.30;52.10
28763;DHT22;15918;51.270;6.522;2024-01-10T14:19:15;3.30;52.20
28763;DHT22;15918;51.270;6.522;2024-01-10T14:21:45;3.30;52.30
28763;DHT22;15918;51.270;6.522;2024-01-10T14:24:13;3.40;52.40
28763;DHT22;15918;51.270;6.522;2024-01-10T14:26:39;3.30;52.40
28763;DHT22;15918;51.270;6.522;2024-01-10T14:29:05;3.30;52.40
28763;DHT22;15918;51.270;6.522;2024-01-10T14:31:31;3.30;52.50
28763;DHT22;15918;51.270;6.522;2024-01-10T14:33:57;3.30;52.50
28763;DHT22;15918;51.270;6.522;2024-01-10T14:36:22;3.30;52.50
28763;DHT22;15918;51.270;6.522;2024-01-10T14:38:48;3.40;52.60
28763;DHT22;15918;51.270;6.522;2024-01-10T14:41:13;3.30;52.50
28763;DHT22;15918;51.270;6.522;2024-01-10T14:43:39;3.40;52.60
28763;DHT22;15918;51.270;6.522;2024-01-10T14:46:05;3.40;52.50
28763;DHT22;15918;51.270;6.522;2024-01-10T14:48:34;3.40;52.50
28763;DHT22;15918;51.270;6.522;2024-01-10T14:51:01;3.40;52.40
28763;DHT22;15918;51.270;6.522;2024-01-10T14:53:27;3.40;52.40
28763;DHT22;15918;51.270;6.522;2024-01-10T14:55:52;3.40;52.30
28763;DHT22;15918;51.270;6.522;2024-01-10T14:58:18;3.40;52.30
28763;DHT22;15918;51.270;6.522;2024-01-10T15:00:44;3.40;52.40
28763;DHT22;15918;51.270;6.522;2024-01-10T15:03:10;3.40;52.50
28763;DHT22;15918;51.270;6.522;2024-01-10T15:05:36;3.40;52.50
28763;DHT22;15918;51.270;6.522;2024-01-10T15:08:02;3.40;52.50
28763;DHT22;15918;51.270;6.522;2024-01-10T15:10:28;3.40;52.50
28763;DHT22;15918;51.270;6.522;2024-01-10T15:12:53;3.40;52.40
28763;DHT22;15918;51.270;6.522;2024-01-10T15:15:19;3.40;52.40
28763;DHT22;15918;51.270;6.522;2024-01-10T15:17:45;3.40;52.40
28763;DHT22;15918;51.270;6.522;2024-01-10T15:20:11;3.40;52.30
28763;DHT22;15918;51.270;6.522;2024-01-10T15:22:36;3.40;52.30
28763;DHT22;15918;51.270;6.522;2024-01-10T15:25:05;3.40;52.30
28763;DHT22;15918;51.270;6.522;2024-01-10T15:27:31;3.40;52.40
28763;DHT22;15918;51.270;6.522;2024-01-10T15:29:58;3.40;52.30
28763;DHT22;15918;51.270;6.522;2024-01-10T15:32:23;3.40;52.30
28763;DHT22;15918;51.270;6.522;2024-01-10T15:34:49;3.40;52.40
28763;DHT22;15918;51.270;6.522;2024-01-10T15:37:15;3.40;52.40
28763;DHT22;15918;51.270;6.522;2024-01-10T15:39:41;3.40;52.40
28763;DHT22;15918;51.270;6.522;2024-01-10T15:42:06;3.40;52.40
28763;DHT22;15918;51.270;6.522;2024-01-10T15:44:32;3.40;52.50
28763;DHT22;15918;51.270;6.522;2024-01-10T15:46:58;3.40;52.60
28763;DHT22;15918;51.270;6.522;2024-01-10T15:49:24;3.40;52.50
28763;DHT22;15918;51.270;6.522;2024-01-10T15:51:50;3.40;52.60